createdAt,value
2022-09-28T00:01:15.608Z,11.02
2022-09-28T00:03:41.884Z,10.74
2022-09-28T00:06:10.065Z,11.12
2022-09-28T00:08:36.746Z,11.05
2022-09-28T00:11:04.221Z,11.16
2022-09-28T00:13:33.174Z,11.08
2022-09-28T00:16:07.164Z,11.13
2022-09-28T00:18:33.878Z,11.13
2022-09-28T00:21:04.727Z,10.72
2022-09-28T00:23:49.600Z,10.85
2022-09-28T00:26:15.853Z,10.80
2022-09-28T00:28:42.096Z,10.68
2022-09-28T00:31:08.506Z,10.65
2022-09-28T00:33:34.870Z,10.53
2022-09-28T00:36:01.246Z,10.68
2022-09-28T00:38:28.364Z,10.55
2022-09-28T00:40:55.895Z,10.48
2022-09-28T00:43:23.093Z,10.30
2022-09-28T00:45:55.005Z,10.38
2022-09-28T00:48:21.329Z,10.65
2022-09-28T00:50:47.606Z,10.37
2022-09-28T00:53:24.405Z,10.27
2022-09-28T00:55:54.818Z,10.36
2022-09-28T00:58:27.424Z,10.30
2022-09-28T01:00:56.140Z,10.25
2022-09-28T01:03:22.506Z,10.39
2022-09-28T01:05:50.475Z,10.22
2022-09-28T01:08:18.413Z,10.31
2022-09-28T01:10:44.650Z,10.30
2022-09-28T01:13:11.835Z,10.42
2022-09-28T01:15:43.301Z,10.57
2022-09-28T01:18:09.549Z,10.68
2022-09-28T01:20:57.024Z,10.42
2022-09-28T01:23:26.177Z,10.49
2022-09-28T01:26:01.385Z,10.46
2022-09-28T01:28:28.384Z,10.35
2022-09-28T01:30:54.603Z,10.21
2022-09-28T01:33:23.543Z,10.42
2022-09-28T01:35:59.817Z,10.26
2022-09-28T01:38:29.462Z,10.57
2022-09-28T01:40:57.991Z,10.16
2022-09-28T01:43:25.815Z,10.68
2022-09-28T01:46:05.464Z,10.93
2022-09-28T01:48:35.737Z,11.05
2022-09-28T01:51:04.361Z,11.07
2022-09-28T01:53:35.677Z,11.05
2022-09-28T01:56:05.179Z,11.15
2022-09-28T01:58:38.127Z,11.23
2022-09-28T02:01:09.964Z,11.19
2022-09-28T02:03:40.001Z,11.30
2022-09-28T02:06:09.159Z,11.32
2022-09-28T02:08:38.908Z,11.29
2022-09-28T02:11:11.337Z,11.28
2022-09-28T02:13:40.796Z,11.14
2022-09-28T02:16:07.332Z,11.15
2022-09-28T02:18:33.998Z,11.34
2022-09-28T02:21:06.991Z,11.23
2022-09-28T02:23:35.088Z,10.79
2022-09-28T02:26:03.837Z,11.07
2022-09-28T02:28:30.125Z,11.13
2022-09-28T02:30:56.411Z,11.09
2022-09-28T02:33:36.232Z,11.15
2022-09-28T02:36:03.570Z,11.09
2022-09-28T02:38:32.704Z,10.78
2022-09-28T02:41:17.836Z,10.77
2022-09-28T02:43:57.991Z,10.79
2022-09-28T02:46:35.712Z,10.81
2022-09-28T02:49:30.116Z,10.83
2022-09-28T02:52:05.127Z,10.88
2022-09-28T02:55:00.106Z,10.79
2022-09-28T02:57:29.108Z,10.83
2022-09-28T03:00:07.913Z,10.45
2022-09-28T03:02:44.045Z,10.68
2022-09-28T03:05:22.655Z,10.63
2022-09-28T03:08:00.009Z,10.90
2022-09-28T03:10:35.517Z,10.78
2022-09-28T03:13:02.743Z,10.88
2022-09-28T03:15:33.065Z,10.74
2022-09-28T03:17:59.380Z,10.71
2022-09-28T03:20:26.124Z,10.83
2022-09-28T03:23:19.638Z,10.58
2022-09-28T03:25:38.781Z,10.68
2022-09-28T03:28:05.017Z,10.64
2022-09-28T03:30:31.372Z,10.74
2022-09-28T03:32:58.908Z,10.72
2022-09-28T03:35:25.199Z,10.72
2022-09-28T03:37:54.222Z,10.92
2022-09-28T03:40:20.511Z,11.01
2022-09-28T03:42:46.961Z,11.11
2022-09-28T03:45:13.259Z,11.06
2022-09-28T03:47:39.527Z,11.13
2022-09-28T03:50:06.828Z,11.21
2022-09-28T03:52:33.127Z,11.23
2022-09-28T03:54:59.524Z,11.11
2022-09-28T03:57:25.807Z,11.19
2022-09-28T03:59:52.098Z,11.24
2022-09-28T04:02:18.407Z,11.35
2022-09-28T04:04:44.648Z,11.33
2022-09-28T04:07:10.880Z,11.35
2022-09-28T04:09:37.120Z,11.36
2022-09-28T04:12:04.605Z,11.32
2022-09-28T04:14:30.990Z,11.33
2022-09-28T04:16:57.247Z,11.32
2022-09-28T04:19:23.550Z,11.33
2022-09-28T04:21:52.837Z,11.19
2022-09-28T04:24:20.354Z,11.26
2022-09-28T04:26:46.696Z,11.28
2022-09-28T04:29:15.943Z,11.27
2022-09-28T04:31:49.726Z,11.20
2022-09-28T04:34:22.818Z,11.12
2022-09-28T04:36:49.871Z,11.12
2022-09-28T04:39:16.967Z,11.07
2022-09-28T04:41:43.342Z,11.10
2022-09-28T04:44:09.683Z,11.09
2022-09-28T04:46:36.355Z,11.11
2022-09-28T04:49:02.879Z,10.99
2022-09-28T04:51:32.769Z,10.96
2022-09-28T04:53:59.225Z,10.88
2022-09-28T04:56:25.555Z,10.88
2022-09-28T04:58:52.823Z,10.95
2022-09-28T05:01:20.328Z,10.86
2022-09-28T05:03:46.571Z,10.90
2022-09-28T05:06:14.889Z,10.79
2022-09-28T05:08:41.785Z,10.84
2022-09-28T05:11:10.511Z,10.69
2022-09-28T05:13:45.071Z,10.74
2022-09-28T05:16:12.321Z,10.68
2022-09-28T05:18:38.724Z,10.76
2022-09-28T05:21:09.529Z,10.75
2022-09-28T05:23:35.786Z,10.82
2022-09-28T05:26:02.271Z,10.61
2022-09-28T05:28:31.270Z,10.68
2022-09-28T05:31:01.053Z,10.64
2022-09-28T05:33:28.158Z,10.33
2022-09-28T05:35:57.868Z,10.66
2022-09-28T05:38:27.190Z,10.69
2022-09-28T05:40:53.583Z,10.57
2022-09-28T05:43:19.912Z,10.81
2022-09-28T05:45:46.182Z,10.91
2022-09-28T05:48:12.510Z,11.04
2022-09-28T05:50:38.780Z,11.08
2022-09-28T05:53:06.643Z,11.14
2022-09-28T05:55:32.991Z,11.16
2022-09-28T05:57:59.820Z,11.20
2022-09-28T06:00:26.758Z,11.02
2022-09-28T06:02:56.576Z,11.18
2022-09-28T06:05:23.110Z,11.24
2022-09-28T06:07:49.364Z,11.26
2022-09-28T06:10:15.668Z,11.37
2022-09-28T06:12:43.029Z,11.30
2022-09-28T06:15:09.521Z,11.31
2022-09-28T06:17:35.773Z,11.30
2022-09-28T06:20:02.040Z,11.29
2022-09-28T06:22:28.334Z,11.32
2022-09-28T06:24:54.578Z,11.43
2022-09-28T06:27:22.740Z,11.41
2022-09-28T06:29:48.983Z,11.38
2022-09-28T06:32:15.204Z,11.22
2022-09-28T06:34:42.769Z,11.19
2022-09-28T06:37:09.013Z,11.22
2022-09-28T06:39:35.245Z,11.16
2022-09-28T06:42:03.270Z,11.15
2022-09-28T06:44:29.979Z,11.10
2022-09-28T06:46:56.233Z,11.13
2022-09-28T06:49:22.487Z,11.05
2022-09-28T06:51:48.763Z,11.02
2022-09-28T06:54:15.136Z,11.06
2022-09-28T06:56:41.480Z,11.03
2022-09-28T06:59:07.735Z,10.91
2022-09-28T07:01:34.038Z,11.13
2022-09-28T07:04:01.801Z,11.17
2022-09-28T07:06:28.779Z,11.04
2022-09-28T07:09:00.432Z,11.16
2022-09-28T07:11:41.284Z,11.08
2022-09-28T07:14:13.110Z,11.21
2022-09-28T07:17:09.666Z,11.25
2022-09-28T07:19:28.430Z,11.23
2022-09-28T07:22:04.220Z,11.17
2022-09-28T07:24:31.561Z,11.20
2022-09-28T07:26:57.809Z,11.19
2022-09-28T07:29:24.050Z,11.20
2022-09-28T07:31:52.846Z,11.02
2022-09-28T07:34:23.482Z,11.13
2022-09-28T07:36:49.749Z,11.14
2022-09-28T07:39:16.004Z,11.14
2022-09-28T07:41:43.052Z,11.03
2022-09-28T07:44:09.291Z,11.03
2022-09-28T07:46:36.828Z,11.05
2022-09-28T07:49:09.773Z,11.05
2022-09-28T07:51:38.554Z,11.08
2022-09-28T07:54:05.769Z,11.32
2022-09-28T07:56:33.919Z,11.38
2022-09-28T07:59:00.275Z,11.50
2022-09-28T08:01:26.686Z,11.46
2022-09-28T08:03:56.202Z,11.45
2022-09-28T08:09:51.061Z,11.53
2022-09-28T08:12:19.578Z,11.71
2022-09-28T08:14:46.139Z,11.75
2022-09-28T08:17:12.421Z,11.75
2022-09-28T08:19:57.189Z,11.96
2022-09-28T08:22:23.469Z,11.97
2022-09-28T08:24:49.721Z,11.97
2022-09-28T08:27:16.572Z,12.02
2022-09-28T08:29:43.377Z,11.97
2022-09-28T08:32:10.342Z,11.91
2022-09-28T08:34:40.732Z,12.07
2022-09-28T08:37:08.670Z,12.10
2022-09-28T08:39:35.378Z,12.10
2022-09-28T08:42:10.792Z,12.06
2022-09-28T08:44:40.517Z,12.05
2022-09-28T08:47:30.011Z,12.06
2022-09-28T08:49:57.417Z,12.03
2022-09-28T08:52:28.953Z,12.07
2022-09-28T08:55:24.851Z,12.04
2022-09-28T08:57:56.129Z,12.06
2022-09-28T09:00:40.942Z,12.03
2022-09-28T09:03:11.396Z,12.14
2022-09-28T09:05:57.923Z,12.21
2022-09-28T09:08:42.621Z,12.04
2022-09-28T09:11:18.002Z,12.08
2022-09-28T09:13:50.403Z,12.03
2022-09-28T09:16:16.773Z,12.06
2022-09-28T09:18:47.183Z,12.13
2022-09-28T09:21:13.394Z,12.00
2022-09-28T09:23:48.651Z,12.16
2022-09-28T09:26:22.024Z,12.25
2022-09-28T09:29:08.520Z,12.30
2022-09-28T09:31:40.882Z,12.31
2022-09-28T09:34:25.388Z,12.20
2022-09-28T09:37:04.083Z,12.28
2022-09-28T09:39:36.175Z,12.34
2022-09-28T09:42:12.666Z,12.40
2022-09-28T09:44:39.069Z,12.38
2022-09-28T09:47:13.441Z,12.37
2022-09-28T09:49:44.147Z,12.41
2022-09-28T09:52:19.622Z,12.44
2022-09-28T09:54:48.899Z,12.53
2022-09-28T09:57:17.474Z,12.61
2022-09-28T09:59:45.024Z,12.56
2022-09-28T10:02:31.736Z,12.64
2022-09-28T10:05:16.421Z,12.73
2022-09-28T10:07:45.443Z,12.68
2022-09-28T10:10:30.585Z,12.73
2022-09-28T10:12:57.126Z,12.59
2022-09-28T10:15:25.244Z,12.57
2022-09-28T10:17:52.116Z,12.61
2022-09-28T10:20:18.883Z,12.59
2022-09-28T10:22:45.541Z,12.49
2022-09-28T10:25:12.801Z,12.59
2022-09-28T10:27:41.168Z,12.43
2022-09-28T10:30:08.109Z,12.56
2022-09-28T10:32:43.662Z,12.51
2022-09-28T10:35:18.832Z,12.52
2022-09-28T10:37:56.353Z,12.50
2022-09-28T10:40:30.500Z,12.50
2022-09-28T10:43:19.911Z,12.41
2022-09-28T10:45:46.351Z,12.34
2022-09-28T10:48:20.439Z,12.33
2022-09-28T10:51:06.309Z,12.36
2022-09-28T10:53:33.781Z,12.32
2022-09-28T10:56:02.117Z,12.44
2022-09-28T10:58:40.384Z,12.25
2022-09-28T11:01:09.747Z,12.26
2022-09-28T11:03:41.735Z,12.25
2022-09-28T11:06:08.521Z,12.22
2022-09-28T11:08:37.357Z,12.33
2022-09-28T11:11:11.038Z,12.48
2022-09-28T11:13:39.012Z,12.46
2022-09-28T11:16:05.422Z,12.34
2022-09-28T11:18:32.602Z,12.34
2022-09-28T11:21:22.171Z,12.21
2022-09-28T11:23:55.461Z,12.21
2022-09-28T11:26:21.884Z,12.11
2022-09-28T11:28:51.457Z,12.28
2022-09-28T11:31:25.212Z,11.98
2022-09-28T11:34:00.890Z,12.14
2022-09-28T11:36:36.519Z,11.99
2022-09-28T11:39:09.153Z,11.97
2022-09-28T11:41:45.631Z,11.98
2022-09-28T11:44:14.749Z,11.87
2022-09-28T11:46:44.039Z,11.87
2022-09-28T11:49:27.297Z,12.02
2022-09-28T11:51:56.502Z,12.06
2022-09-28T11:54:28.937Z,12.11
2022-09-28T11:56:57.594Z,12.25
2022-09-28T11:59:30.695Z,12.17
2022-09-28T12:01:58.322Z,12.23
2022-09-28T12:04:36.795Z,12.39
2022-09-28T12:07:23.375Z,12.42
2022-09-28T12:09:59.280Z,12.38
2022-09-28T12:12:38.171Z,12.47
2022-09-28T12:15:12.405Z,12.53
2022-09-28T12:18:01.958Z,12.55
2022-09-28T12:20:43.479Z,12.63
2022-09-28T12:23:12.720Z,12.62
2022-09-28T12:25:50.545Z,12.48
2022-09-28T12:28:24.878Z,12.50
2022-09-28T12:30:51.979Z,12.38
2022-09-28T12:33:18.445Z,12.50
2022-09-28T12:35:53.304Z,12.43
2022-09-28T12:38:22.394Z,12.60
2022-09-28T12:41:09.170Z,12.66
2022-09-28T12:43:54.416Z,12.65
2022-09-28T12:46:28.469Z,12.67
2022-09-28T12:49:33.190Z,12.61
2022-09-28T12:51:47.113Z,12.47
2022-09-28T12:54:28.592Z,12.44
2022-09-28T12:57:10.255Z,12.56
2022-09-28T13:00:00.994Z,12.55
2022-09-28T13:02:33.355Z,12.51
2022-09-28T13:05:18.636Z,12.40
2022-09-28T13:08:03.541Z,12.45
2022-09-28T13:10:35.597Z,12.27
2022-09-28T13:13:10.944Z,12.36
2022-09-28T13:15:41.245Z,12.40
2022-09-28T13:18:07.479Z,12.37
2022-09-28T13:20:45.939Z,12.33
2022-09-28T13:23:21.023Z,12.34
2022-09-28T13:25:57.438Z,12.23
2022-09-28T13:28:27.248Z,12.17
2022-09-28T13:30:55.295Z,12.32
2022-09-28T13:33:35.768Z,12.20
2022-09-28T13:36:04.996Z,12.25
2022-09-28T13:38:43.400Z,12.33
2022-09-28T13:41:11.416Z,12.15
2022-09-28T13:43:41.243Z,12.07
2022-09-28T13:46:12.810Z,12.11
2022-09-28T13:48:39.128Z,12.20
2022-09-28T13:51:05.585Z,12.23
2022-09-28T13:53:44.250Z,12.42
2022-09-28T13:56:10.467Z,12.58
2022-09-28T13:58:41.518Z,12.49
2022-09-28T14:01:11.605Z,12.42
2022-09-28T14:03:43.041Z,12.38
2022-09-28T14:06:18.642Z,12.30
2022-09-28T14:09:04.955Z,12.47
2022-09-28T14:11:34.785Z,12.25
2022-09-28T14:14:02.802Z,12.42
2022-09-28T14:16:33.360Z,12.31
2022-09-28T14:19:39.102Z,12.28
2022-09-28T14:22:17.096Z,12.12
2022-09-28T14:24:44.947Z,12.11
2022-09-28T14:27:17.350Z,12.03
2022-09-28T14:29:43.680Z,11.81
2022-09-28T14:32:10.009Z,12.00
2022-09-28T14:34:37.972Z,11.93
2022-09-28T14:37:34.742Z,12.08
2022-09-28T14:40:27.084Z,11.87
2022-09-28T14:43:13.986Z,11.56
2022-09-28T14:45:45.819Z,11.71
2022-09-28T14:48:15.141Z,11.44
2022-09-28T14:50:41.446Z,11.44
2022-09-28T14:53:15.013Z,11.49
2022-09-28T14:55:45.864Z,11.27
2022-09-28T14:58:26.669Z,11.38
2022-09-28T15:00:59.337Z,11.48
2022-09-28T15:03:27.162Z,11.35
2022-09-28T15:05:53.895Z,11.38
2022-09-28T15:08:21.022Z,11.29
2022-09-28T15:10:48.239Z,11.13
2022-09-28T15:13:28.019Z,11.05
2022-09-28T15:15:59.097Z,11.21
2022-09-28T15:18:48.659Z,10.89
2022-09-28T15:21:15.535Z,11.01
2022-09-28T15:23:43.237Z,10.99
2022-09-28T15:26:45.145Z,10.86
2022-09-28T15:29:17.265Z,10.82
2022-09-28T15:31:43.553Z,10.84
2022-09-28T15:34:44.555Z,10.76
2022-09-28T15:37:11.823Z,10.84
2022-09-28T15:39:38.668Z,10.76
2022-09-28T15:42:05.654Z,10.79
2022-09-28T15:44:36.983Z,10.69
2022-09-28T15:47:05.284Z,10.74
2022-09-28T15:49:38.934Z,10.85
2022-09-28T15:52:05.834Z,10.82
2022-09-28T15:54:38.795Z,10.96
2022-09-28T15:57:05.079Z,11.02
2022-09-28T15:59:35.513Z,11.18
2022-09-28T16:02:10.780Z,11.40
2022-09-28T16:04:40.127Z,11.65
2022-09-28T16:07:09.360Z,11.78
2022-09-28T16:09:56.846Z,11.38
2022-09-28T16:12:25.149Z,11.64
2022-09-28T16:14:52.258Z,11.52
2022-09-28T16:17:22.803Z,11.31
2022-09-28T16:19:49.376Z,11.72
2022-09-28T16:22:19.939Z,11.62
2022-09-28T16:24:53.973Z,11.74
2022-09-28T16:27:26.168Z,11.56
2022-09-28T16:30:05.209Z,11.62
2022-09-28T16:32:32.109Z,11.50
2022-09-28T16:35:11.026Z,11.41
2022-09-28T16:37:37.861Z,11.35
2022-09-28T16:40:04.418Z,11.61
2022-09-28T16:42:30.725Z,11.41
2022-09-28T16:44:57.073Z,11.30
2022-09-28T16:47:23.536Z,10.99
2022-09-28T16:49:50.192Z,10.96
2022-09-28T16:52:36.454Z,11.09
2022-09-28T16:58:04.790Z,11.09
2022-09-28T17:00:31.824Z,11.05
2022-09-28T17:02:58.527Z,10.67
2022-09-28T17:05:25.440Z,10.73
2022-09-28T17:08:03.877Z,10.47
2022-09-28T17:11:02.455Z,10.42
2022-09-28T17:13:35.887Z,10.48
2022-09-28T17:16:04.207Z,10.72
2022-09-28T17:18:33.684Z,10.63
2022-09-28T17:21:03.433Z,10.61
2022-09-28T17:23:30.002Z,10.81
2022-09-28T17:25:56.666Z,10.79
2022-09-28T17:28:25.147Z,10.70
2022-09-28T17:30:51.858Z,10.71
2022-09-28T17:33:18.197Z,10.79
2022-09-28T17:35:45.040Z,10.61
2022-09-28T17:38:15.416Z,10.49
2022-09-28T17:40:42.818Z,10.71
2022-09-28T17:43:09.561Z,10.83
2022-09-28T17:45:39.372Z,10.76
2022-09-28T17:48:06.184Z,10.87
2022-09-28T17:50:34.073Z,10.82
2022-09-28T17:53:03.861Z,10.70
2022-09-28T17:55:33.811Z,10.67
2022-09-28T17:58:01.316Z,10.69
2022-09-28T18:00:28.223Z,10.73
2022-09-28T18:02:55.431Z,10.81
2022-09-28T18:05:23.359Z,10.79
2022-09-28T18:07:50.048Z,10.53
2022-09-28T18:10:19.742Z,10.24
2022-09-28T18:12:46.130Z,10.48
2022-09-28T18:15:12.629Z,10.36
2022-09-28T18:17:39.048Z,10.43
2022-09-28T18:20:06.239Z,10.43
2022-09-28T18:22:32.525Z,10.34
2022-09-28T18:24:58.800Z,10.57
2022-09-28T18:27:25.109Z,10.46
2022-09-28T18:29:51.397Z,10.68
2022-09-28T18:32:17.845Z,10.12
2022-09-28T18:34:44.091Z,10.07
2022-09-28T18:37:10.631Z,10.35
2022-09-28T18:39:37.128Z,10.59
2022-09-28T18:42:04.098Z,10.57
2022-09-28T18:44:30.370Z,10.61
2022-09-28T18:46:56.826Z,10.20
2022-09-28T18:49:23.279Z,10.19
2022-09-28T18:51:49.917Z,10.19
2022-09-28T18:54:17.018Z,10.14
2022-09-28T18:56:43.336Z,10.23
2022-09-28T18:59:12.260Z,10.15
2022-09-28T19:01:38.904Z,9.76
2022-09-28T19:04:06.797Z,9.84
2022-09-28T19:06:34.285Z,9.88
2022-09-28T19:09:01.402Z,10.00
2022-09-28T19:11:28.705Z,9.93
2022-09-28T19:13:55.699Z,9.86
2022-09-28T19:16:24.291Z,9.95
2022-09-28T19:18:52.460Z,9.89
2022-09-28T19:21:19.396Z,9.82
2022-09-28T19:23:49.204Z,9.82
2022-09-28T19:26:17.383Z,9.98
2022-09-28T19:28:43.785Z,9.78
2022-09-28T19:31:11.078Z,9.77
2022-09-28T19:33:37.991Z,9.83
2022-09-28T19:36:05.940Z,9.73
2022-09-28T19:38:33.212Z,9.69
2022-09-28T19:40:59.757Z,9.72
2022-09-28T19:43:26.707Z,9.87
2022-09-28T19:45:54.831Z,9.71
2022-09-28T19:48:27.698Z,9.63
2022-09-28T19:50:58.637Z,9.59
2022-09-28T19:53:29.479Z,9.63
2022-09-28T19:55:56.759Z,9.81
2022-09-28T19:58:24.606Z,9.79
2022-09-28T20:00:51.186Z,9.71
2022-09-28T20:03:18.576Z,9.84
2022-09-28T20:05:45.364Z,9.74
2022-09-28T20:08:12.551Z,9.58
2022-09-28T20:10:38.895Z,9.74
2022-09-28T20:13:05.218Z,9.97
2022-09-28T20:15:31.665Z,10.38
2022-09-28T20:17:58.651Z,10.62
2022-09-28T20:20:28.349Z,10.69
2022-09-28T20:22:55.048Z,10.80
2022-09-28T20:25:21.547Z,10.75
2022-09-28T20:27:47.820Z,10.81
2022-09-28T20:30:14.240Z,10.83
2022-09-28T20:32:40.533Z,10.81
2022-09-28T20:35:07.225Z,10.80
2022-09-28T20:37:34.045Z,10.78
2022-09-28T20:40:01.639Z,10.82
2022-09-28T20:42:28.905Z,10.68
2022-09-28T20:44:55.178Z,10.73
2022-09-28T20:47:21.436Z,10.59
2022-09-28T20:49:47.713Z,10.71
2022-09-28T20:52:14.048Z,10.67
2022-09-28T20:54:40.348Z,10.70
2022-09-28T20:57:17.249Z,10.64
2022-09-28T20:59:52.183Z,10.42
2022-09-28T21:02:21.721Z,10.43
2022-09-28T21:04:48.088Z,10.61
2022-09-28T21:07:14.347Z,10.38
2022-09-28T21:09:40.740Z,10.36
2022-09-28T21:12:08.999Z,10.15
2022-09-28T21:14:35.267Z,9.97
2022-09-28T21:17:01.540Z,10.03
2022-09-28T21:19:31.889Z,9.99
2022-09-28T21:21:58.168Z,9.94
2022-09-28T21:24:25.186Z,10.16
2022-09-28T21:26:51.416Z,10.31
2022-09-28T21:29:17.739Z,10.29
2022-09-28T21:31:47.822Z,10.25
2022-09-28T21:34:15.295Z,10.15
2022-09-28T21:36:43.250Z,10.18
2022-09-28T21:39:10.530Z,10.40
2022-09-28T21:41:37.104Z,10.40
2022-09-28T21:44:03.409Z,10.36
2022-09-28T21:46:34.037Z,10.34
2022-09-28T21:49:04.394Z,10.38
2022-09-28T21:51:30.770Z,10.37
2022-09-28T21:53:57.083Z,10.33
2022-09-28T21:56:23.533Z,10.09
2022-09-28T21:58:50.188Z,10.31
2022-09-28T22:01:19.323Z,10.23
2022-09-28T22:03:47.791Z,10.28
2022-09-28T22:06:14.968Z,10.18
2022-09-28T22:08:41.238Z,10.17
2022-09-28T22:11:27.839Z,10.13
2022-09-28T22:13:56.423Z,10.08
2022-09-28T22:16:24.040Z,10.03
2022-09-28T22:18:50.369Z,10.02
2022-09-28T22:21:20.813Z,10.03
2022-09-28T22:23:47.189Z,9.77
2022-09-28T22:26:18.874Z,9.59
2022-09-28T22:28:46.828Z,9.68
2022-09-28T22:31:13.566Z,9.75
2022-09-28T22:33:39.887Z,9.77
2022-09-28T22:36:07.826Z,9.73
2022-09-28T22:38:35.137Z,9.71
2022-09-28T22:41:03.606Z,9.75
2022-09-28T22:43:30.342Z,9.71
2022-09-28T22:46:03.365Z,9.56
2022-09-28T22:48:29.925Z,9.70
2022-09-28T22:50:56.206Z,9.66
2022-09-28T22:53:22.594Z,9.72
2022-09-28T22:55:48.865Z,9.73
2022-09-28T22:58:15.145Z,9.81
2022-09-28T23:00:41.469Z,9.80
2022-09-28T23:03:07.821Z,9.73
2022-09-28T23:05:34.118Z,9.81
2022-09-28T23:08:00.473Z,9.87
2022-09-28T23:10:27.199Z,9.82
2022-09-28T23:12:54.774Z,9.87
2022-09-28T23:15:22.249Z,9.85
2022-09-28T23:17:52.522Z,9.55
2022-09-28T23:20:19.268Z,9.68
2022-09-28T23:22:46.322Z,9.67
2022-09-28T23:25:12.702Z,9.72
2022-09-28T23:27:38.961Z,9.70
2022-09-28T23:30:05.431Z,9.75
2022-09-28T23:32:32.220Z,9.73
2022-09-28T23:34:58.524Z,9.83
2022-09-28T23:37:24.807Z,9.73
2022-09-28T23:39:51.545Z,9.53
2022-09-28T23:42:17.791Z,9.46
2022-09-28T23:44:44.041Z,9.36
2022-09-28T23:47:10.287Z,9.27
2022-09-28T23:49:36.549Z,9.25
2022-09-28T23:52:02.783Z,9.25
2022-09-28T23:54:29.035Z,9.02
2022-09-28T23:56:55.306Z,9.01
2022-09-28T23:59:21.605Z,9.06
